createdAt,value
2023-01-21T00:02:11.259Z,-1.47
2023-01-21T00:04:39.580Z,-1.44
2023-01-21T00:07:08.560Z,-1.51
2023-01-21T00:09:36.935Z,-1.65
2023-01-21T00:12:05.716Z,-1.55
2023-01-21T00:14:34.454Z,-1.59
2023-01-21T00:17:04.171Z,-1.60
2023-01-21T00:19:32.571Z,-1.62
2023-01-21T00:22:00.861Z,-1.55
2023-01-21T00:24:29.602Z,-1.45
2023-01-21T00:26:57.950Z,-1.30
2023-01-21T00:29:26.429Z,-1.23
2023-01-21T00:31:57.278Z,-1.16
2023-01-21T00:34:26.989Z,-1.01
2023-01-21T00:36:56.588Z,-1.14
2023-01-21T00:39:25.002Z,-1.10
2023-01-21T00:41:53.267Z,-0.85
2023-01-21T00:44:21.606Z,-0.86
2023-01-21T00:46:49.957Z,-1.22
2023-01-21T00:49:18.636Z,-1.32
2023-01-21T00:51:48.412Z,-1.29
2023-01-21T00:54:16.724Z,-0.89
2023-01-21T00:56:45.029Z,-0.90
2023-01-21T00:59:13.719Z,-0.91
2023-01-21T01:01:42.294Z,-0.61
2023-01-21T01:04:12.203Z,-0.95
2023-01-21T01:06:40.523Z,-1.22
2023-01-21T01:09:12.839Z,-0.96
2023-01-21T01:11:41.283Z,-1.31
2023-01-21T01:14:09.667Z,-1.28
2023-01-21T01:16:38.110Z,-1.39
2023-01-21T01:19:06.452Z,-1.31
2023-01-21T01:21:34.866Z,-1.37
2023-01-21T01:24:03.330Z,-1.51
2023-01-21T01:26:35.459Z,-1.49
2023-01-21T01:29:04.133Z,-1.55
2023-01-21T01:31:34.791Z,-1.52
2023-01-21T01:34:03.104Z,-1.62
2023-01-21T01:36:31.385Z,-1.50
2023-01-21T01:39:00.046Z,-1.54
2023-01-21T01:41:30.299Z,-1.63
2023-01-21T01:44:02.138Z,-1.71
2023-01-21T01:46:32.190Z,-1.88
2023-01-21T01:49:04.963Z,-1.80
2023-01-21T01:51:43.923Z,-1.71
2023-01-21T01:54:15.510Z,-1.84
2023-01-21T01:56:48.015Z,-1.76
2023-01-21T01:59:18.053Z,-1.90
2023-01-21T02:01:46.542Z,-1.83
2023-01-21T02:04:21.059Z,-1.88
2023-01-21T02:06:51.208Z,-1.82
2023-01-21T02:09:19.495Z,-1.83
2023-01-21T02:11:47.932Z,-2.07
2023-01-21T02:14:18.807Z,-2.09
2023-01-21T02:17:08.836Z,-2.16
2023-01-21T02:20:16.180Z,-2.16
2023-01-21T02:22:54.598Z,-2.17
2023-01-21T02:26:06.062Z,-2.28
2023-01-21T02:29:06.852Z,-2.43
2023-01-21T02:32:19.416Z,-2.40
2023-01-21T02:34:53.846Z,-2.34
2023-01-21T02:37:32.256Z,-2.39
2023-01-21T02:40:11.500Z,-2.46
2023-01-21T02:42:45.953Z,-2.41
2023-01-21T02:45:25.065Z,-2.45
2023-01-21T02:48:05.751Z,-2.42
2023-01-21T02:50:39.440Z,-2.58
2023-01-21T02:53:07.741Z,-2.58
2023-01-21T02:55:38.118Z,-2.52
2023-01-21T02:58:10.054Z,-2.49
2023-01-21T03:00:51.409Z,-2.57
2023-01-21T03:03:35.512Z,-2.62
2023-01-21T03:06:26.755Z,-2.54
2023-01-21T03:09:00.262Z,-2.67
2023-01-21T03:11:29.271Z,-2.71
2023-01-21T03:14:21.939Z,-2.70
2023-01-21T03:16:58.088Z,-2.73
2023-01-21T03:19:33.559Z,-2.83
2023-01-21T03:22:07.645Z,-2.81
2023-01-21T03:24:37.518Z,-2.73
2023-01-21T03:27:10.020Z,-2.61
2023-01-21T03:29:42.147Z,-2.79
2023-01-21T03:32:15.950Z,-2.60
2023-01-21T03:34:50.547Z,-2.54
2023-01-21T03:37:28.883Z,-2.66
2023-01-21T03:40:06.149Z,-1.97
2023-01-21T03:42:34.741Z,-2.37
2023-01-21T03:45:03.667Z,-2.70
2023-01-21T03:47:35.107Z,-2.58
2023-01-21T03:50:10.641Z,-2.61
2023-01-21T03:52:42.713Z,-2.28
2023-01-21T03:55:12.417Z,-2.62
2023-01-21T03:57:40.783Z,-2.73
2023-01-21T04:00:10.243Z,-3.03
2023-01-21T04:02:39.200Z,-3.02
2023-01-21T04:05:08.011Z,-2.74
2023-01-21T04:07:38.490Z,-2.83
2023-01-21T04:10:10.008Z,-2.88
2023-01-21T04:12:39.096Z,-2.79
2023-01-21T04:15:08.707Z,-2.85
2023-01-21T04:17:37.245Z,-2.22
2023-01-21T04:20:07.409Z,-2.78
2023-01-21T04:22:35.741Z,-2.58
2023-01-21T04:25:05.162Z,-2.56
2023-01-21T04:27:34.748Z,-2.66
2023-01-21T04:30:03.117Z,-2.58
2023-01-21T04:32:31.396Z,-2.71
2023-01-21T04:34:59.788Z,-2.94
2023-01-21T04:37:28.050Z,-3.04
2023-01-21T04:39:56.343Z,-3.02
2023-01-21T04:42:24.754Z,-3.10
2023-01-21T04:44:54.498Z,-3.34
2023-01-21T04:47:22.820Z,-3.28
2023-01-21T04:49:52.711Z,-3.29
2023-01-21T04:52:21.069Z,-3.31
2023-01-21T04:54:49.396Z,-3.41
2023-01-21T04:57:17.741Z,-3.41
2023-01-21T04:59:46.056Z,-3.39
2023-01-21T05:02:15.688Z,-3.43
2023-01-21T05:04:43.994Z,-3.51
2023-01-21T05:07:13.353Z,-3.59
2023-01-21T05:09:41.952Z,-3.59
2023-01-21T05:12:10.904Z,-3.64
2023-01-21T05:14:39.200Z,-3.76
2023-01-21T05:17:07.685Z,-3.77
2023-01-21T05:19:37.416Z,-3.85
2023-01-21T05:22:05.768Z,-3.89
2023-01-21T05:24:34.014Z,-3.95
2023-01-21T05:27:02.442Z,-3.93
2023-01-21T05:29:30.744Z,-3.82
2023-01-21T05:31:59.114Z,-3.75
2023-01-21T05:34:27.473Z,-3.84
2023-01-21T05:36:57.179Z,-3.78
2023-01-21T05:39:25.453Z,-3.80
2023-01-21T05:41:54.111Z,-3.84
2023-01-21T05:44:22.365Z,-3.81
2023-01-21T05:46:50.739Z,-3.75
2023-01-21T05:49:19.634Z,-3.75
2023-01-21T05:51:47.878Z,-3.72
2023-01-21T05:54:17.569Z,-3.74
2023-01-21T05:56:46.160Z,-3.84
2023-01-21T05:59:14.448Z,-3.78
2023-01-21T06:01:42.781Z,-3.92
2023-01-21T06:04:11.158Z,-3.97
2023-01-21T06:06:40.631Z,-3.96
2023-01-21T06:09:09.136Z,-3.93
2023-01-21T06:11:38.863Z,-3.94
2023-01-21T06:14:07.115Z,-3.99
2023-01-21T06:16:35.400Z,-3.81
2023-01-21T06:19:03.744Z,-3.86
2023-01-21T06:21:32.057Z,-3.90
2023-01-21T06:24:00.586Z,-3.79
2023-01-21T06:26:28.928Z,-3.92
2023-01-21T06:28:58.602Z,-3.81
2023-01-21T06:31:27.101Z,-3.77
2023-01-21T06:33:58.386Z,-3.98
2023-01-21T06:36:26.715Z,-3.91
2023-01-21T06:38:57.056Z,-4.09
2023-01-21T06:41:25.374Z,-3.97
2023-01-21T06:43:53.625Z,-3.79
2023-01-21T06:46:29.185Z,-3.71
2023-01-21T06:48:59.649Z,-3.73
2023-01-21T06:51:28.007Z,-3.75
2023-01-21T06:53:56.491Z,-3.59
2023-01-21T06:56:24.795Z,-3.64
2023-01-21T06:58:53.116Z,-3.55
2023-01-21T07:01:21.529Z,-3.62
2023-01-21T07:03:51.332Z,-3.41
2023-01-21T07:06:22.001Z,-3.56
2023-01-21T07:08:50.406Z,-3.56
2023-01-21T07:11:18.714Z,-3.61
2023-01-21T07:13:46.968Z,-3.54
2023-01-21T07:16:15.380Z,-3.54
2023-01-21T07:18:43.670Z,-3.46
2023-01-21T07:21:13.570Z,-3.53
2023-01-21T07:23:42.041Z,-3.42
2023-01-21T07:26:10.355Z,-3.37
2023-01-21T07:28:38.726Z,-3.32
2023-01-21T07:31:09.583Z,-3.14
2023-01-21T07:33:37.960Z,-3.21
2023-01-21T07:36:07.057Z,-3.02
2023-01-21T07:38:36.715Z,-3.15
2023-01-21T07:41:05.358Z,-3.02
2023-01-21T07:43:33.977Z,-3.01
2023-01-21T07:46:02.475Z,-3.01
2023-01-21T07:48:30.791Z,-3.09
2023-01-21T07:50:59.461Z,-3.04
2023-01-21T07:53:28.431Z,-2.97
2023-01-21T07:55:58.113Z,-2.99
2023-01-21T07:58:28.792Z,-2.79
2023-01-21T08:00:59.784Z,-3.02
2023-01-21T08:03:28.079Z,-2.62
2023-01-21T08:05:56.363Z,-2.49
2023-01-21T08:08:24.743Z,-2.30
2023-01-21T08:10:53.952Z,-2.71
2023-01-21T08:13:24.002Z,-2.82
2023-01-21T08:15:54.083Z,-2.49
2023-01-21T08:18:23.973Z,-2.78
2023-01-21T08:20:56.485Z,-2.64
2023-01-21T08:23:25.269Z,-2.07
2023-01-21T08:25:53.906Z,-2.32
2023-01-21T08:28:24.212Z,-1.84
2023-01-21T08:30:52.563Z,-1.70
2023-01-21T08:33:21.265Z,-1.80
2023-01-21T08:35:51.373Z,-1.97
2023-01-21T08:38:19.695Z,-1.64
2023-01-21T08:40:48.003Z,-1.54
2023-01-21T08:43:16.639Z,-2.22
2023-01-21T08:45:46.338Z,-1.78
2023-01-21T08:48:14.695Z,-1.73
2023-01-21T08:50:43.132Z,-1.96
2023-01-21T08:53:11.890Z,-1.56
2023-01-21T08:55:40.266Z,-1.41
2023-01-21T08:58:08.988Z,-1.45
2023-01-21T09:00:37.419Z,-1.48
2023-01-21T09:03:07.173Z,-1.44
2023-01-21T09:05:35.942Z,-1.56
2023-01-21T09:08:04.322Z,-1.18
2023-01-21T09:10:50.337Z,-1.23
2023-01-21T09:13:20.007Z,-1.62
2023-01-21T09:15:50.753Z,-1.25
2023-01-21T09:18:20.742Z,-1.14
2023-01-21T09:20:49.118Z,-1.48
2023-01-21T09:23:32.533Z,-0.46
2023-01-21T09:26:04.161Z,-0.36
2023-01-21T09:28:34.469Z,-0.62
2023-01-21T09:31:04.502Z,-0.40
2023-01-21T09:33:36.242Z,-0.53
2023-01-21T09:36:07.561Z,-0.60
2023-01-21T09:38:36.047Z,-0.78
2023-01-21T09:41:13.723Z,-0.52
2023-01-21T09:43:47.349Z,-1.29
2023-01-21T09:46:21.804Z,-0.28
2023-01-21T09:48:52.504Z,-0.56
2023-01-21T09:51:27.015Z,-0.29
2023-01-21T09:53:59.428Z,-0.71
2023-01-21T09:56:35.547Z,-0.65
2023-01-21T09:59:11.402Z,0.08
2023-01-21T10:01:43.618Z,-0.57
2023-01-21T10:04:32.154Z,-0.41
2023-01-21T10:07:07.710Z,0.06
2023-01-21T10:09:49.625Z,-0.28
2023-01-21T10:12:30.767Z,0.00
2023-01-21T10:15:33.764Z,-0.04
2023-01-21T10:18:07.890Z,0.18
2023-01-21T10:20:44.640Z,-0.82
2023-01-21T10:23:17.964Z,-0.39
2023-01-21T10:25:50.070Z,-0.52
2023-01-21T10:28:23.874Z,-0.14
2023-01-21T10:30:54.735Z,-0.20
2023-01-21T10:33:25.138Z,0.44
2023-01-21T10:36:29.513Z,0.80
2023-01-21T10:39:05.133Z,0.75
2023-01-21T10:41:51.355Z,-0.65
2023-01-21T10:44:26.543Z,-0.70
2023-01-21T10:47:03.688Z,-0.59
2023-01-21T10:49:47.415Z,-0.50
2023-01-21T10:52:24.195Z,-0.61
2023-01-21T10:54:59.121Z,0.25
2023-01-21T10:57:45.151Z,-0.27
2023-01-21T11:00:21.809Z,-0.77
2023-01-21T11:02:54.756Z,-0.33
2023-01-21T11:05:25.504Z,-0.65
2023-01-21T11:07:56.792Z,-0.90
2023-01-21T11:10:28.944Z,-0.87
2023-01-21T11:12:57.723Z,-0.48
2023-01-21T11:15:34.194Z,-0.35
2023-01-21T11:18:23.478Z,-0.71
2023-01-21T11:20:58.026Z,-0.90
2023-01-21T11:23:28.952Z,-0.80
2023-01-21T11:26:05.820Z,-0.87
2023-01-21T11:28:34.736Z,-0.55
2023-01-21T11:31:14.421Z,-0.73
2023-01-21T11:33:44.112Z,-0.98
2023-01-21T11:36:16.697Z,-0.81
2023-01-21T11:38:46.720Z,-0.60
2023-01-21T11:41:21.025Z,-0.80
2023-01-21T11:43:51.184Z,-0.67
2023-01-21T11:46:23.756Z,-0.73
2023-01-21T11:48:54.741Z,-0.70
2023-01-21T11:51:24.270Z,-0.62
2023-01-21T11:54:13.588Z,-0.87
2023-01-21T11:56:44.266Z,-0.80
2023-01-21T11:59:22.783Z,-0.36
2023-01-21T12:01:52.011Z,-0.79
2023-01-21T12:04:20.060Z,-0.72
2023-01-21T12:06:53.558Z,-0.70
2023-01-21T12:09:21.736Z,-0.57
2023-01-21T12:12:06.037Z,-0.46
2023-01-21T12:14:41.444Z,-0.56
2023-01-21T12:17:13.107Z,-0.70
2023-01-21T12:19:48.926Z,-0.33
2023-01-21T12:22:37.822Z,-0.49
2023-01-21T12:25:22.275Z,-0.48
2023-01-21T12:27:56.919Z,-0.57
2023-01-21T12:30:30.678Z,-0.76
2023-01-21T12:33:01.187Z,-0.70
2023-01-21T12:35:31.233Z,-0.44
2023-01-21T12:38:02.462Z,-0.60
2023-01-21T12:40:35.744Z,-0.76
2023-01-21T12:43:06.580Z,-0.37
2023-01-21T12:45:36.173Z,-0.06
2023-01-21T12:48:07.262Z,-0.46
2023-01-21T12:50:39.559Z,-0.14
2023-01-21T12:53:17.064Z,-0.46
2023-01-21T12:55:56.901Z,-0.42
2023-01-21T12:58:27.478Z,-0.09
2023-01-21T13:00:55.760Z,-0.47
2023-01-21T13:03:28.790Z,-0.56
2023-01-21T13:06:00.789Z,-0.39
2023-01-21T13:08:36.263Z,-0.35
2023-01-21T13:11:08.457Z,-0.13
2023-01-21T13:13:39.440Z,-0.15
2023-01-21T13:16:09.143Z,-0.40
2023-01-21T13:18:38.419Z,-0.08
2023-01-21T13:21:10.027Z,-0.55
2023-01-21T13:23:41.873Z,-0.18
2023-01-21T13:26:15.613Z,-0.36
2023-01-21T13:28:46.912Z,-0.53
2023-01-21T13:31:18.772Z,-0.37
2023-01-21T13:33:52.620Z,-0.57
2023-01-21T13:36:27.509Z,-0.37
2023-01-21T13:39:02.049Z,-0.56
2023-01-21T13:41:37.933Z,-0.70
2023-01-21T13:44:20.933Z,-0.75
2023-01-21T13:46:55.134Z,-0.76
2023-01-21T13:49:41.011Z,-0.74
2023-01-21T13:52:13.725Z,-0.63
2023-01-21T13:54:51.053Z,-0.70
2023-01-21T13:57:29.328Z,-0.75
2023-01-21T13:59:59.296Z,-0.63
2023-01-21T14:02:31.045Z,-0.79
2023-01-21T14:05:04.469Z,-0.58
2023-01-21T14:07:35.110Z,-0.56
2023-01-21T14:10:06.108Z,-0.86
2023-01-21T14:12:45.738Z,-0.79
2023-01-21T14:15:20.322Z,-0.84
2023-01-21T14:18:09.238Z,-0.85
2023-01-21T14:20:58.377Z,-0.89
2023-01-21T14:23:35.911Z,-0.81
2023-01-21T14:26:09.139Z,-1.00
2023-01-21T14:28:43.660Z,-0.83
2023-01-21T14:31:14.770Z,-0.84
2023-01-21T14:33:47.572Z,-0.91
2023-01-21T14:36:18.362Z,-0.94
2023-01-21T14:38:54.961Z,-0.85
2023-01-21T14:41:25.428Z,-0.91
2023-01-21T14:43:54.910Z,-0.46
2023-01-21T14:46:27.870Z,-0.89
2023-01-21T14:48:58.319Z,-0.77
2023-01-21T14:51:27.061Z,-0.80
2023-01-21T14:53:58.627Z,-0.83
2023-01-21T14:56:28.876Z,-0.28
2023-01-21T14:58:59.598Z,-0.33
2023-01-21T15:01:29.824Z,-0.79
2023-01-21T15:03:59.182Z,-0.78
2023-01-21T15:06:27.711Z,-0.70
2023-01-21T15:08:58.795Z,-0.79
2023-01-21T15:11:32.648Z,-0.59
2023-01-21T15:14:11.192Z,-0.76
2023-01-21T15:16:40.966Z,-0.76
2023-01-21T15:19:26.071Z,-0.62
2023-01-21T15:22:10.308Z,-0.40
2023-01-21T15:24:41.295Z,-0.74
2023-01-21T15:27:17.752Z,-0.87
2023-01-21T15:29:48.242Z,-0.71
2023-01-21T15:32:25.180Z,-0.53
2023-01-21T15:34:55.520Z,-0.67
2023-01-21T15:37:24.547Z,-0.83
2023-01-21T15:39:53.424Z,-0.78
2023-01-21T15:42:24.232Z,-0.72
2023-01-21T15:44:59.930Z,-0.49
2023-01-21T15:47:51.492Z,-0.75
2023-01-21T15:50:21.531Z,-0.72
2023-01-21T15:52:58.183Z,-0.79
2023-01-21T15:55:32.077Z,-0.75
2023-01-21T15:58:06.639Z,-0.63
2023-01-21T16:00:44.563Z,-0.72
2023-01-21T16:03:19.917Z,-0.78
2023-01-21T16:05:55.612Z,-0.38
2023-01-21T16:08:36.417Z,-0.35
2023-01-21T16:11:21.627Z,-0.73
2023-01-21T16:14:00.045Z,-0.63
2023-01-21T16:16:43.996Z,-0.78
2023-01-21T16:19:15.549Z,-0.73
2023-01-21T16:21:48.004Z,-0.59
2023-01-21T16:24:21.147Z,0.10
2023-01-21T16:26:49.577Z,-0.26
2023-01-21T16:29:17.659Z,-0.35
2023-01-21T16:31:48.491Z,-0.41
2023-01-21T16:34:23.947Z,-0.61
2023-01-21T16:36:52.155Z,-0.61
2023-01-21T16:39:20.689Z,-0.47
2023-01-21T16:42:00.019Z,-0.64
2023-01-21T16:44:28.183Z,-0.57
2023-01-21T16:46:57.569Z,-0.49
2023-01-21T16:49:26.624Z,-0.49
2023-01-21T16:51:56.530Z,-0.52
2023-01-21T16:54:26.295Z,-0.46
2023-01-21T16:56:55.779Z,-0.37
2023-01-21T16:59:26.358Z,-0.57
2023-01-21T17:01:55.364Z,-0.57
2023-01-21T17:04:24.910Z,-0.17
2023-01-21T17:06:53.981Z,-0.31
2023-01-21T17:09:27.360Z,0.16
2023-01-21T17:11:56.156Z,-0.11
2023-01-21T17:14:25.809Z,-0.15
2023-01-21T17:16:55.831Z,-0.09
2023-01-21T17:19:28.860Z,-0.09
2023-01-21T17:21:59.986Z,0.28
2023-01-21T17:24:29.872Z,0.24
2023-01-21T17:27:03.714Z,-0.06
2023-01-21T17:29:32.606Z,-0.37
2023-01-21T17:32:01.724Z,-0.25
2023-01-21T17:34:32.063Z,-0.27
2023-01-21T17:37:00.268Z,-0.18
2023-01-21T17:39:47.356Z,0.02
2023-01-21T17:42:16.376Z,-0.24
2023-01-21T17:44:46.273Z,-0.15
2023-01-21T17:47:21.078Z,-0.24
2023-01-21T17:49:55.826Z,-0.14
2023-01-21T17:52:24.829Z,-0.39
2023-01-21T17:55:10.638Z,-0.28
2023-01-21T17:57:38.717Z,-0.31
2023-01-21T18:00:25.682Z,-0.40
2023-01-21T18:02:53.744Z,-0.44
2023-01-21T18:05:23.422Z,-0.23
2023-01-21T18:08:08.542Z,-0.36
2023-01-21T18:10:38.728Z,-0.42
2023-01-21T18:13:06.903Z,-0.50
2023-01-21T18:15:34.948Z,-0.29
2023-01-21T18:18:03.403Z,-0.42
2023-01-21T18:20:32.953Z,-0.35
2023-01-21T18:23:01.051Z,-0.55
2023-01-21T18:25:29.218Z,-0.68
2023-01-21T18:27:57.480Z,-0.54
2023-01-21T18:30:29.863Z,-0.41
2023-01-21T18:32:58.126Z,-0.58
2023-01-21T18:35:27.668Z,-0.50
2023-01-21T18:37:57.272Z,-0.47
2023-01-21T18:40:25.598Z,-0.59
2023-01-21T18:42:55.421Z,-0.70
2023-01-21T18:45:25.758Z,-0.44
2023-01-21T18:47:53.899Z,-0.60
2023-01-21T18:50:23.715Z,-0.87
2023-01-21T18:52:51.810Z,-0.59
2023-01-21T18:55:21.945Z,-0.55
2023-01-21T18:57:51.496Z,-0.75
2023-01-21T19:00:24.251Z,-0.49
2023-01-21T19:02:53.598Z,-0.77
2023-01-21T19:05:22.252Z,-0.68
2023-01-21T19:07:50.289Z,-0.81
2023-01-21T19:10:20.047Z,-0.49
2023-01-21T19:12:50.009Z,-0.76
2023-01-21T19:15:22.003Z,-0.87
2023-01-21T19:17:56.552Z,-0.66
2023-01-21T19:20:25.725Z,-0.73
2023-01-21T19:22:55.020Z,-0.75
2023-01-21T19:25:23.985Z,-0.58
2023-01-21T19:27:54.600Z,-0.80
2023-01-21T19:30:25.564Z,-0.32
2023-01-21T19:32:57.124Z,-0.65
2023-01-21T19:35:29.793Z,-0.79
2023-01-21T19:37:58.213Z,-1.02
2023-01-21T19:40:27.088Z,-0.85
2023-01-21T19:42:56.525Z,-0.89
2023-01-21T19:45:25.518Z,-1.03
2023-01-21T19:47:53.609Z,-1.01
2023-01-21T19:50:22.893Z,-1.11
2023-01-21T19:52:51.763Z,-1.08
2023-01-21T19:55:20.614Z,-1.21
2023-01-21T19:57:51.473Z,-0.98
2023-01-21T20:00:22.476Z,-0.92
2023-01-21T20:02:50.534Z,-0.96
2023-01-21T20:05:18.856Z,-0.98
2023-01-21T20:07:47.841Z,-1.33
2023-01-21T20:10:16.947Z,-1.14
2023-01-21T20:12:45.024Z,-1.18
2023-01-21T20:15:13.715Z,-1.31
2023-01-21T20:17:46.176Z,-1.19
2023-01-21T20:20:15.303Z,-0.92
2023-01-21T20:22:43.406Z,-1.00
2023-01-21T20:25:14.200Z,-0.87
2023-01-21T20:27:42.337Z,-0.82
2023-01-21T20:30:16.343Z,-0.95
2023-01-21T20:32:46.007Z,-0.98
2023-01-21T20:35:17.206Z,-0.91
2023-01-21T20:37:48.811Z,-0.88
2023-01-21T20:40:21.635Z,-0.95
2023-01-21T20:42:50.235Z,-1.08
2023-01-21T20:45:20.593Z,-1.07
2023-01-21T20:47:52.894Z,-1.20
2023-01-21T20:50:24.195Z,-0.75
2023-01-21T20:52:54.023Z,-0.81
2023-01-21T20:55:24.248Z,-0.84
2023-01-21T20:57:52.789Z,-1.00
2023-01-21T21:00:22.268Z,-0.90
2023-01-21T21:02:56.215Z,-0.69
2023-01-21T21:05:29.569Z,-0.81
2023-01-21T21:07:57.705Z,-0.43
2023-01-21T21:10:30.200Z,-0.70
2023-01-21T21:13:01.433Z,-0.89
2023-01-21T21:15:29.833Z,-0.43
2023-01-21T21:17:59.502Z,-0.70
2023-01-21T21:20:29.295Z,-0.87
2023-01-21T21:22:57.387Z,-0.49
2023-01-21T21:25:28.816Z,-0.49
2023-01-21T21:27:58.964Z,-0.44
2023-01-21T21:30:28.527Z,-0.61
2023-01-21T21:32:59.478Z,-0.86
2023-01-21T21:35:30.536Z,-0.65
2023-01-21T21:37:59.584Z,-0.78
2023-01-21T21:40:29.558Z,-0.81
2023-01-21T21:43:15.196Z,-0.77
2023-01-21T21:46:03.524Z,-0.70
2023-01-21T21:48:40.889Z,-0.58
2023-01-21T21:51:11.109Z,-0.76
2023-01-21T21:53:39.796Z,-0.54
2023-01-21T21:56:08.691Z,-0.65
2023-01-21T21:58:37.125Z,-0.75
2023-01-21T22:02:42.294Z,-0.84
2023-01-21T22:05:11.583Z,-0.93
2023-01-21T22:07:39.777Z,-0.80
2023-01-21T22:10:08.312Z,-0.79
2023-01-21T22:12:36.417Z,-0.77
2023-01-21T22:15:05.145Z,-0.87
2023-01-21T22:17:33.980Z,-0.71
2023-01-21T22:20:03.426Z,-0.88
2023-01-21T22:22:31.487Z,-1.18
2023-01-21T22:24:59.487Z,-0.80
2023-01-21T22:27:27.505Z,-0.71
2023-01-21T22:29:55.496Z,-0.70
2023-01-21T22:32:23.623Z,-1.06
2023-01-21T22:34:54.477Z,-0.92
2023-01-21T22:37:23.939Z,-1.02
2023-01-21T22:39:52.047Z,-0.91
2023-01-21T22:42:20.154Z,-1.11
2023-01-21T22:44:48.221Z,-0.95
2023-01-21T22:47:18.542Z,-0.95
2023-01-21T22:49:49.211Z,-1.11
2023-01-21T22:52:17.253Z,-0.72
2023-01-21T22:54:48.834Z,-0.65
2023-01-21T22:57:18.643Z,-0.86
2023-01-21T22:59:46.886Z,-0.52
2023-01-21T23:02:15.004Z,-0.88
2023-01-21T23:04:43.133Z,-0.56
2023-01-21T23:07:11.233Z,-0.57
2023-01-21T23:09:39.371Z,-0.44
2023-01-21T23:12:18.544Z,-0.76
2023-01-21T23:14:46.742Z,-0.61
2023-01-21T23:17:16.629Z,-0.66
2023-01-21T23:19:44.729Z,-0.52
2023-01-21T23:22:12.842Z,-0.63
2023-01-21T23:24:43.609Z,-0.45
2023-01-21T23:27:13.104Z,-0.71
2023-01-21T23:29:43.463Z,-0.67
2023-01-21T23:32:11.509Z,-0.74
2023-01-21T23:34:39.589Z,-0.79
2023-01-21T23:37:07.727Z,-0.71
2023-01-21T23:39:35.720Z,-0.66
2023-01-21T23:42:03.811Z,-0.89
2023-01-21T23:44:33.566Z,-0.94
2023-01-21T23:47:01.671Z,-0.94
2023-01-21T23:49:29.956Z,-0.70
2023-01-21T23:51:58.002Z,-0.61
2023-01-21T23:54:26.242Z,-0.43
2023-01-21T23:56:56.042Z,-0.23
2023-01-21T23:59:24.279Z,-0.63
